createdAt,value
2018-12-11T00:00:45.436Z,99617.02
2018-12-11T00:03:15.264Z,99618.83
2018-12-11T00:05:45.431Z,99621.53
2018-12-11T00:08:15.173Z,99625.56
2018-12-11T00:10:45.301Z,99621.49
2018-12-11T00:13:15.432Z,99608.27
2018-12-11T00:15:45.476Z,99607.45
2018-12-11T00:18:16.651Z,99595.89
2018-12-11T00:20:46.384Z,99600.63
2018-12-11T00:23:16.322Z,99597.08
2018-12-11T00:25:46.536Z,99600.50
2018-12-11T00:28:16.353Z,99594.33
2018-12-11T00:30:46.455Z,99595.41
2018-12-11T00:33:16.577Z,99588.52
2018-12-11T00:35:50.751Z,99591.97
2018-12-11T00:38:20.606Z,99590.67
2018-12-11T00:40:50.348Z,99593.28
2018-12-11T00:43:20.472Z,99591.97
2018-12-11T00:45:50.598Z,99590.20
2018-12-11T00:48:20.358Z,99590.43
2018-12-11T00:50:50.522Z,99593.41
2018-12-11T00:53:20.750Z,99591.05
2018-12-11T00:55:50.641Z,99593.66
2018-12-11T00:58:20.484Z,99595.07
2018-12-11T01:00:50.862Z,99592.94
2018-12-11T01:03:20.981Z,99592.25
2018-12-11T01:05:51.232Z,99595.80
2018-12-11T01:08:22.097Z,99594.98
2018-12-11T01:10:52.367Z,99590.09
2018-12-11T01:13:22.402Z,99590.46
2018-12-11T01:15:52.224Z,99603.54
2018-12-11T01:18:22.078Z,99602.83
2018-12-11T01:20:52.718Z,99597.83
2018-12-11T01:23:22.479Z,99600.80
2018-12-11T01:25:52.481Z,99601.62
2018-12-11T01:28:22.284Z,99593.91
2018-12-11T01:30:52.111Z,99607.58
2018-12-11T01:33:22.209Z,99600.69
2018-12-11T01:35:52.454Z,99603.63
2018-12-11T01:38:28.223Z,99596.97
2018-12-11T01:40:58.330Z,99612.88
2018-12-11T01:43:28.332Z,99613.97
2018-12-11T01:45:58.474Z,99593.84
2018-12-11T01:48:28.286Z,99596.22
2018-12-11T01:50:58.129Z,99608.38
2018-12-11T01:53:28.259Z,99609.22
2018-12-11T01:55:58.511Z,99615.04
2018-12-11T01:58:28.300Z,99617.06
2018-12-11T02:00:58.276Z,99614.45
2018-12-11T02:03:28.275Z,99612.06
2018-12-11T02:05:58.750Z,99621.70
2018-12-11T02:08:28.839Z,99617.66
2018-12-11T02:10:58.675Z,99615.62
2018-12-11T02:13:28.419Z,99620.63
2018-12-11T02:15:58.363Z,99622.16
2018-12-11T02:18:28.508Z,99621.25
2018-12-11T02:20:58.233Z,99607.19
2018-12-11T02:23:28.232Z,99615.52
2018-12-11T02:25:58.336Z,99611.73
2018-12-11T02:28:28.338Z,99616.83
2018-12-11T02:30:58.436Z,99622.19
2018-12-11T02:33:28.804Z,99609.83
2018-12-11T02:35:59.493Z,99611.98
2018-12-11T02:38:29.275Z,99620.29
2018-12-11T02:41:08.167Z,99616.73
2018-12-11T02:43:38.204Z,99607.93
2018-12-11T02:46:08.179Z,99609.59
2018-12-11T02:48:38.815Z,99610.91
2018-12-11T02:51:08.687Z,99608.65
2018-12-11T02:53:38.499Z,99609.95
2018-12-11T02:56:08.528Z,99599.73
2018-12-11T02:58:38.626Z,99614.49
2018-12-11T03:01:08.367Z,99611.87
2018-12-11T03:03:38.352Z,99612.59
2018-12-11T03:06:08.673Z,99610.80
2018-12-11T03:08:38.371Z,99619.49
2018-12-11T03:11:08.371Z,99609.41
2018-12-11T03:13:39.603Z,99610.48
2018-12-11T03:16:09.383Z,99603.81
2018-12-11T03:18:39.109Z,99604.66
2018-12-11T03:21:09.311Z,99605.24
2018-12-11T03:23:39.053Z,99605.14
2018-12-11T03:26:09.136Z,99602.88
2018-12-11T03:28:39.179Z,99597.16
2018-12-11T03:31:09.138Z,99601.20
2018-12-11T03:33:39.073Z,99598.48
2018-12-11T03:36:09.170Z,99594.77
2018-12-11T03:38:39.239Z,99597.75
2018-12-11T03:41:10.307Z,99593.01
2018-12-11T03:43:40.429Z,99598.84
2018-12-11T03:46:10.679Z,99584.80
2018-12-11T03:48:40.591Z,99594.67
2018-12-11T03:51:10.374Z,99586.47
2018-12-11T03:53:40.384Z,99589.44
2018-12-11T03:56:12.223Z,99587.18
2018-12-11T03:58:42.040Z,99591.46
2018-12-11T04:01:12.056Z,99592.28
2018-12-11T04:03:42.510Z,99585.73
2018-12-11T04:06:12.278Z,99578.02
2018-12-11T04:08:42.463Z,99584.67
2018-12-11T04:11:12.520Z,99583.00
2018-12-11T04:13:43.106Z,99578.02
2018-12-11T04:16:14.168Z,99579.79
2018-12-11T04:18:44.081Z,99576.36
2018-12-11T04:21:17.670Z,99569.56
2018-12-11T04:23:47.449Z,99569.81
2018-12-11T04:26:17.311Z,99574.22
2018-12-11T04:28:47.432Z,99570.30
2018-12-11T04:31:17.473Z,99573.63
2018-12-11T04:33:47.442Z,99574.08
2018-12-11T04:36:17.163Z,99565.52
2018-12-11T04:38:48.194Z,99544.12
2018-12-11T04:41:18.502Z,99567.67
2018-12-11T04:43:48.267Z,99565.66
2018-12-11T04:46:18.115Z,99570.89
2018-12-11T04:48:48.300Z,99570.41
2018-12-11T04:51:18.328Z,99566.96
2018-12-11T04:53:48.514Z,99566.61
2018-12-11T04:56:18.743Z,99569.09
2018-12-11T04:58:48.501Z,99566.48
2018-12-11T05:01:18.449Z,99565.53
2018-12-11T05:03:48.551Z,99561.97
2018-12-11T05:06:18.407Z,99563.02
2018-12-11T05:08:48.468Z,99561.25
2018-12-11T05:11:19.709Z,99564.92
2018-12-11T05:13:49.442Z,99557.66
2018-12-11T05:16:19.248Z,99559.56
2018-12-11T05:18:49.516Z,99554.59
2018-12-11T05:21:19.281Z,99557.45
2018-12-11T05:23:49.489Z,99560.06
2018-12-11T05:26:19.573Z,99551.72
2018-12-11T05:28:49.458Z,99552.33
2018-12-11T05:31:19.215Z,99550.87
2018-12-11T05:33:49.279Z,99553.27
2018-12-11T05:36:19.031Z,99545.42
2018-12-11T05:38:49.200Z,99550.87
2018-12-11T05:41:19.223Z,99550.66
2018-12-11T05:43:49.450Z,99546.14
2018-12-11T05:46:19.288Z,99538.64
2018-12-11T05:48:49.209Z,99540.88
2018-12-11T05:51:19.303Z,99556.48
2018-12-11T05:53:49.080Z,99543.03
2018-12-11T05:56:19.291Z,99545.66
2018-12-11T05:58:49.092Z,99538.50
2018-12-11T06:01:19.311Z,99542.68
2018-12-11T06:03:49.384Z,99537.80
2018-12-11T06:06:20.200Z,99543.39
2018-12-11T06:08:50.480Z,99543.15
2018-12-11T06:11:20.422Z,99544.45
2018-12-11T06:13:50.536Z,99548.03
2018-12-11T06:16:20.953Z,99534.45
2018-12-11T06:18:51.059Z,99542.91
2018-12-11T06:21:21.324Z,99536.61
2018-12-11T06:23:51.363Z,99536.00
2018-12-11T06:26:21.480Z,99541.48
2018-12-11T06:28:51.680Z,99544.92
2018-12-11T06:31:21.448Z,99547.67
2018-12-11T06:33:52.523Z,99544.70
2018-12-11T06:36:22.275Z,99548.14
2018-12-11T06:46:31.630Z,99554.56
2018-12-11T06:49:08.287Z,99535.92
2018-12-11T06:51:38.708Z,99549.22
2018-12-11T06:54:08.439Z,99542.21
2018-12-11T06:56:38.456Z,99554.10
2018-12-11T06:59:08.691Z,99553.25
2018-12-11T07:01:38.507Z,99552.68
2018-12-11T07:04:08.280Z,99551.48
2018-12-11T07:06:38.542Z,99557.19
2018-12-11T07:09:08.929Z,99551.95
2018-12-11T07:11:40.223Z,99554.22
2018-12-11T07:14:10.091Z,99550.53
2018-12-11T07:16:40.455Z,99558.14
2018-12-11T07:19:10.488Z,99557.78
2018-12-11T07:21:40.299Z,99553.27
2018-12-11T07:24:10.571Z,99559.09
2018-12-11T07:26:40.649Z,99559.31
2018-12-11T07:29:10.415Z,99563.84
2018-12-11T07:31:40.265Z,99564.31
2018-12-11T07:34:10.333Z,99558.97
2018-12-11T07:36:40.167Z,99560.63
2018-12-11T07:39:10.320Z,99557.78
2018-12-11T07:41:40.333Z,99558.02
2018-12-11T07:44:10.517Z,99555.05
2018-12-11T07:46:40.492Z,99556.45
2018-12-11T07:49:10.660Z,99554.45
2018-12-11T07:51:40.419Z,99555.64
2018-12-11T07:54:10.811Z,99560.16
2018-12-11T07:56:40.836Z,99554.81
2018-12-11T07:59:10.596Z,99551.48
2018-12-11T08:01:40.418Z,99550.30
2018-12-11T08:04:11.592Z,99543.25
2018-12-11T08:06:41.389Z,99543.28
2018-12-11T08:09:11.185Z,99548.99
2018-12-11T08:11:41.289Z,99546.02
2018-12-11T08:14:11.079Z,99552.67
2018-12-11T08:16:41.123Z,99550.53
2018-12-11T08:19:11.746Z,99551.37
2018-12-11T08:21:41.475Z,99554.35
2018-12-11T08:24:11.516Z,99550.67
2018-12-11T08:26:41.567Z,99554.45
2018-12-11T08:29:11.381Z,99553.63
2018-12-11T08:31:41.305Z,99554.59
2018-12-11T08:34:11.692Z,99567.44
2018-12-11T08:36:41.502Z,99565.52
2018-12-11T08:39:11.392Z,99566.00
2018-12-11T08:41:41.659Z,99577.07
2018-12-11T08:44:11.474Z,99574.55
2018-12-11T08:46:41.477Z,99569.22
2018-12-11T08:49:11.632Z,99568.15
2018-12-11T08:51:41.395Z,99567.08
2018-12-11T08:54:11.313Z,99564.23
2018-12-11T08:56:41.421Z,99568.15
2018-12-11T08:59:11.165Z,99569.22
2018-12-11T09:01:41.412Z,99574.33
2018-12-11T09:04:11.531Z,99568.14
2018-12-11T09:06:41.582Z,99575.17
2018-12-11T09:09:11.496Z,99571.34
2018-12-11T09:11:41.542Z,99585.27
2018-12-11T09:14:11.459Z,99586.70
2018-12-11T09:16:41.460Z,99580.98
2018-12-11T09:19:11.533Z,99582.28
2018-12-11T09:21:41.448Z,99588.02
2018-12-11T09:24:12.893Z,99589.42
2018-12-11T09:26:43.033Z,99581.70
2018-12-11T09:29:13.276Z,99581.83
2018-12-11T09:31:43.156Z,99575.88
2018-12-11T09:34:13.273Z,99476.20
2018-12-11T09:36:43.255Z,99580.64
2018-12-11T09:39:13.395Z,99584.56
2018-12-11T09:41:45.483Z,99590.16
2018-12-11T09:44:15.296Z,99589.68
2018-12-11T09:46:45.257Z,99591.70
2018-12-11T09:49:15.371Z,99601.81
2018-12-11T09:51:45.410Z,99590.98
2018-12-11T09:54:15.628Z,99589.42
2018-12-11T09:56:45.660Z,99591.22
2018-12-11T09:59:16.484Z,99600.74
2018-12-11T10:01:46.459Z,99592.05
2018-12-11T10:04:16.956Z,99597.05
2018-12-11T10:06:47.136Z,99526.85
2018-12-11T10:09:17.347Z,99590.27
2018-12-11T10:11:47.467Z,99599.08
2018-12-11T10:14:17.299Z,99591.82
2018-12-11T10:16:47.650Z,99599.43
2018-12-11T10:19:17.400Z,99597.77
2018-12-11T10:21:47.250Z,99597.05
2018-12-11T10:24:17.609Z,99587.52
2018-12-11T10:26:47.909Z,99594.20
2018-12-11T10:29:18.072Z,99605.37
2018-12-11T10:31:48.283Z,99599.08
2018-12-11T10:34:18.131Z,99602.28
2018-12-11T10:36:49.490Z,99605.50
2018-12-11T10:39:19.718Z,99604.66
2018-12-11T10:41:49.664Z,99601.09
2018-12-11T10:44:19.536Z,99604.07
2018-12-11T10:46:49.821Z,99602.88
2018-12-11T10:49:19.731Z,99607.74
2018-12-11T10:51:49.864Z,99606.45
2018-12-11T10:54:20.113Z,99605.14
2018-12-11T10:56:50.209Z,99602.16
2018-12-11T10:59:20.351Z,99611.30
2018-12-11T11:01:52.434Z,99616.08
2018-12-11T11:04:23.282Z,99620.94
2018-12-11T11:06:53.431Z,99614.64
2018-12-11T11:09:23.596Z,99612.86
2018-12-11T11:11:53.487Z,99623.44
2018-12-11T11:14:23.221Z,99621.08
2018-12-11T11:16:53.342Z,99619.52
2018-12-11T11:19:23.407Z,99618.92
2018-12-11T11:21:53.150Z,99621.78
2018-12-11T11:24:25.524Z,99624.75
2018-12-11T11:26:55.284Z,99637.95
2018-12-11T11:29:25.157Z,99632.02
2018-12-11T11:31:55.465Z,99620.11
2018-12-11T11:34:25.456Z,99640.83
2018-12-11T11:36:55.411Z,99628.45
2018-12-11T11:39:25.585Z,99645.95
2018-12-11T11:41:55.952Z,99651.88
2018-12-11T11:44:26.060Z,99653.33
2018-12-11T11:46:56.313Z,99657.83
2018-12-11T11:49:26.149Z,99671.04
2018-12-11T11:51:56.801Z,99669.03
2018-12-11T11:54:26.656Z,99674.98
2018-12-11T11:56:56.637Z,99680.81
2018-12-11T11:59:26.485Z,99683.20
2018-12-11T12:01:57.636Z,99686.77
2018-12-11T12:07:14.647Z,99690.34
2018-12-11T12:09:44.426Z,99701.05
2018-12-11T12:12:14.456Z,99704.02
2018-12-11T12:14:49.027Z,99709.13
2018-12-11T12:17:16.365Z,99706.26
2018-12-11T12:19:46.391Z,99717.09
2018-12-11T12:22:16.459Z,99715.42
2018-12-11T12:24:46.506Z,99718.17
2018-12-11T12:27:16.365Z,99712.80
2018-12-11T12:29:46.123Z,99721.98
2018-12-11T12:32:16.140Z,99720.32
2018-12-11T12:34:46.109Z,99717.70
2018-12-11T12:37:16.111Z,99718.66
2018-12-11T12:39:46.372Z,99721.63
2018-12-11T12:42:16.169Z,99721.73
2018-12-11T12:44:46.203Z,99722.22
2018-12-11T12:47:16.252Z,99727.33
2018-12-11T12:49:50.554Z,99726.50
2018-12-11T12:52:18.645Z,99727.34
2018-12-11T12:54:48.399Z,99738.52
2018-12-11T12:57:18.500Z,99738.29
2018-12-11T12:59:48.297Z,99743.29
2018-12-11T13:02:18.108Z,99751.14
2018-12-11T13:04:49.008Z,99751.50
2018-12-11T13:07:19.166Z,99745.67
2018-12-11T13:09:49.112Z,99749.59
2018-12-11T13:12:19.505Z,99761.74
2018-12-11T13:14:49.383Z,99761.74
2018-12-11T13:17:19.122Z,99766.27
2018-12-11T13:19:49.375Z,99771.27
2018-12-11T13:22:20.733Z,99776.01
2018-12-11T13:24:51.186Z,99769.59
2018-12-11T13:27:21.212Z,99777.67
2018-12-11T13:29:51.618Z,99784.72
2018-12-11T13:32:21.534Z,99784.36
2018-12-11T13:34:51.311Z,99795.19
2018-12-11T13:37:21.245Z,99795.19
2018-12-11T13:39:51.285Z,99792.70
2018-12-11T13:42:21.432Z,99794.00
2018-12-11T13:44:51.709Z,99801.98
2018-12-11T13:47:21.506Z,99810.17
2018-12-11T13:49:51.288Z,99815.41
2018-12-11T13:52:21.232Z,99809.59
2018-12-11T13:54:50.995Z,99813.74
2018-12-11T13:57:21.124Z,99817.67
2018-12-11T13:59:54.277Z,99822.06
2018-12-11T14:02:24.251Z,99823.73
2018-12-11T14:04:54.765Z,99822.55
2018-12-11T14:07:24.993Z,99833.38
2018-12-11T14:09:55.090Z,99830.77
2018-12-11T14:12:25.503Z,99832.53
2018-12-11T14:14:55.876Z,99834.10
2018-12-11T14:17:25.712Z,99841.23
2018-12-11T14:19:55.584Z,99842.55
2018-12-11T14:22:26.425Z,99841.00
2018-12-11T14:24:56.254Z,99842.55
2018-12-11T14:27:26.155Z,99853.25
2018-12-11T14:29:56.272Z,99853.84
2018-12-11T14:32:26.563Z,99854.91
2018-12-11T14:34:56.410Z,99858.71
2018-12-11T14:37:26.255Z,99862.19
2018-12-11T14:39:57.497Z,99853.02
2018-12-11T14:42:27.235Z,99855.51
2018-12-11T14:44:57.221Z,99860.88
2018-12-11T14:47:27.526Z,99864.08
2018-12-11T14:49:57.390Z,99865.98
2018-12-11T14:52:27.293Z,99865.62
2018-12-11T14:54:57.291Z,99875.86
2018-12-11T14:57:31.273Z,99879.66
2018-12-11T14:59:59.487Z,99878.44
2018-12-11T15:02:29.568Z,99878.57
2018-12-11T15:05:01.293Z,99766.20
2018-12-11T15:07:32.301Z,99879.16
2018-12-11T15:10:02.618Z,99889.63
2018-12-11T15:12:32.453Z,99893.06
2018-12-11T15:15:02.471Z,99894.52
2018-12-11T15:17:32.547Z,99892.25
2018-12-11T15:20:02.733Z,99899.03
2018-12-11T15:22:32.741Z,99906.52
2018-12-11T15:25:02.622Z,99904.03
2018-12-11T15:27:32.381Z,99913.42
2018-12-11T15:30:02.391Z,99914.28
2018-12-11T15:32:32.321Z,99919.28
2018-12-11T15:35:02.039Z,99921.41
2018-12-11T15:37:53.416Z,99917.30
2018-12-11T15:40:23.587Z,99914.12
2018-12-11T15:42:55.800Z,99928.29
2018-12-11T15:45:26.575Z,99937.31
2018-12-11T15:47:56.782Z,99944.34
2018-12-11T15:50:26.884Z,99938.59
2018-12-11T15:52:57.028Z,99943.55
2018-12-11T15:55:27.453Z,99945.25
2018-12-11T15:57:58.046Z,99938.35
2018-12-11T16:00:28.803Z,99944.02
2018-12-11T16:02:58.590Z,99943.34
2018-12-11T16:05:28.460Z,99950.13
2018-12-11T16:07:58.472Z,99955.17
2018-12-11T16:10:28.267Z,99963.20
2018-12-11T16:12:58.426Z,99962.69
2018-12-11T16:15:28.477Z,99965.09
2018-12-11T16:17:58.507Z,99966.18
2018-12-11T16:20:28.448Z,99976.77
2018-12-11T16:22:58.570Z,99977.77
2018-12-11T16:25:28.359Z,99975.09
2018-12-11T16:27:58.528Z,99981.52
2018-12-11T16:30:28.846Z,99985.08
2018-12-11T16:32:58.796Z,99978.96
2018-12-11T16:35:30.122Z,99982.52
2018-12-11T16:38:00.140Z,99980.27
2018-12-11T16:40:30.249Z,99994.30
2018-12-11T16:43:00.643Z,99985.63
2018-12-11T16:45:30.326Z,99984.56
2018-12-11T16:48:00.448Z,99985.98
2018-12-11T16:50:30.592Z,99987.88
2018-12-11T16:53:01.476Z,99993.34
2018-12-11T16:55:31.808Z,99995.45
2018-12-11T17:01:05.403Z,99997.48
2018-12-11T17:03:35.518Z,99996.66
2018-12-11T17:06:05.696Z,99998.19
2018-12-11T17:08:35.751Z,100015.48
2018-12-11T17:11:06.291Z,100015.58
2018-12-11T17:13:36.374Z,100016.09
2018-12-11T17:16:06.138Z,100021.17
2018-12-11T17:18:35.868Z,100027.50
2018-12-11T17:21:06.149Z,100035.11
2018-12-11T17:23:36.369Z,100031.91
2018-12-11T17:26:06.155Z,100008.59
2018-12-11T17:28:37.615Z,100040.37
2018-12-11T17:31:07.750Z,100044.48
2018-12-11T17:33:37.688Z,100047.83
2018-12-11T17:36:07.641Z,100042.59
2018-12-11T17:38:37.745Z,100054.24
2018-12-11T17:41:07.878Z,100050.44
2018-12-11T17:43:38.905Z,100045.42
2018-12-11T17:46:08.930Z,100040.00
2018-12-11T17:48:41.657Z,100053.79
2018-12-11T17:51:11.673Z,100053.52
2018-12-11T17:53:41.863Z,100061.30
2018-12-11T17:56:11.765Z,100055.83
2018-12-11T17:58:41.830Z,100059.54
2018-12-11T18:01:11.609Z,100060.78
2018-12-11T18:03:41.509Z,100071.09
2018-12-11T18:06:11.555Z,100070.06
2018-12-11T18:08:41.325Z,100075.45
2018-12-11T18:11:11.486Z,100072.55
2018-12-11T18:13:41.890Z,100078.73
2018-12-11T18:16:11.961Z,100080.31
2018-12-11T18:18:42.583Z,100077.91
2018-12-11T18:21:12.538Z,100088.83
2018-12-11T18:23:42.493Z,100091.97
2018-12-11T18:26:12.586Z,100090.05
2018-12-11T18:28:42.397Z,100087.80
2018-12-11T18:31:12.509Z,100097.41
2018-12-11T18:33:42.539Z,100090.35
2018-12-11T18:36:12.523Z,100092.11
2018-12-11T18:38:42.731Z,100093.19
2018-12-11T18:41:12.711Z,100095.07
2018-12-11T18:43:42.663Z,100100.15
2018-12-11T18:46:19.580Z,100096.22
2018-12-11T18:48:49.557Z,100104.08
2018-12-11T18:51:19.564Z,100103.12
2018-12-11T18:53:49.440Z,100108.24
2018-12-11T18:56:19.448Z,100114.33
2018-12-11T18:58:50.030Z,100113.39
2018-12-11T19:01:20.076Z,100115.52
2018-12-11T19:03:50.205Z,100113.69
2018-12-11T19:06:20.427Z,100123.20
2018-12-11T19:08:50.654Z,100119.04
2018-12-11T19:11:20.582Z,100118.67
2018-12-11T19:13:50.777Z,100115.20
2018-12-11T19:16:21.076Z,100115.50
2018-12-11T19:18:51.763Z,100120.36
2018-12-11T19:21:21.496Z,100126.45
2018-12-11T19:23:59.111Z,100122.89
2018-12-11T19:26:29.183Z,100119.79
2018-12-11T19:28:59.302Z,100120.73
2018-12-11T19:31:29.056Z,100122.04
2018-12-11T19:33:59.127Z,100125.75
2018-12-11T19:36:29.447Z,100129.67
2018-12-11T19:38:59.197Z,100128.86
2018-12-11T19:41:29.152Z,100125.51
2018-12-11T19:43:59.364Z,100124.28
2018-12-11T19:46:29.185Z,100127.00
2018-12-11T19:48:59.316Z,100126.66
2018-12-11T19:51:30.578Z,100132.95
2018-12-11T19:54:00.352Z,100139.39
2018-12-11T19:56:30.533Z,100144.99
2018-12-11T19:59:00.869Z,100144.76
2018-12-11T20:01:30.927Z,100147.81
2018-12-11T20:04:01.278Z,100145.28
2018-12-11T20:06:31.409Z,100155.30
2018-12-11T20:09:01.486Z,100156.40
2018-12-11T20:11:31.370Z,100134.64
2018-12-11T20:14:01.407Z,100155.75
2018-12-11T20:16:31.340Z,100158.82
2018-12-11T20:19:01.476Z,100156.60
2018-12-11T20:21:31.363Z,100158.07
2018-12-11T20:24:04.965Z,100160.20
2018-12-11T20:26:38.995Z,100168.63
2018-12-11T20:29:05.617Z,100168.21
2018-12-11T20:31:35.552Z,100168.48
2018-12-11T20:34:05.613Z,100169.73
2018-12-11T20:36:35.410Z,100168.33
2018-12-11T20:39:07.260Z,100165.44
2018-12-11T20:41:37.433Z,100171.45
2018-12-11T20:44:07.237Z,100160.41
2018-12-11T20:46:37.127Z,100171.00
2018-12-11T20:49:07.034Z,100166.30
2018-12-11T20:51:39.589Z,100176.59
2018-12-11T20:54:09.488Z,100169.77
2018-12-11T20:56:39.314Z,100167.61
2018-12-11T20:59:09.714Z,100175.41
2018-12-11T21:01:39.417Z,100167.86
2018-12-11T21:04:09.283Z,100176.72
2018-12-11T21:06:39.334Z,100182.05
2018-12-11T21:09:13.887Z,100188.95
2018-12-11T21:11:43.787Z,100187.64
2018-12-11T21:14:13.791Z,100181.59
2018-12-11T21:16:43.756Z,100188.50
2018-12-11T21:19:14.986Z,100187.92
2018-12-11T21:21:45.311Z,100187.27
2018-12-11T21:24:16.187Z,100186.33
2018-12-11T21:26:46.444Z,100185.70
2018-12-11T21:29:16.966Z,100191.23
2018-12-11T21:31:47.020Z,100196.75
2018-12-11T21:34:16.876Z,100191.27
2018-12-11T21:36:47.009Z,100199.00
2018-12-11T21:39:17.269Z,100200.15
2018-12-11T21:41:47.240Z,100202.31
2018-12-11T21:44:17.366Z,100196.51
2018-12-11T21:46:47.140Z,100204.56
2018-12-11T21:49:17.450Z,100198.59
2018-12-11T21:51:47.542Z,100195.66
2018-12-11T21:54:21.707Z,100201.83
2018-12-11T21:56:51.445Z,100201.83
2018-12-11T21:59:21.393Z,100199.33
2018-12-11T22:01:51.249Z,100198.84
2018-12-11T22:04:21.488Z,100201.00
2018-12-11T22:06:51.444Z,100200.84
2018-12-11T22:09:21.345Z,100205.22
2018-12-11T22:11:52.686Z,100206.32
2018-12-11T22:14:22.716Z,100198.95
2018-12-11T22:16:52.520Z,100210.04
2018-12-11T22:19:22.504Z,100208.73
2018-12-11T22:21:52.359Z,100212.28
2018-12-11T22:24:22.485Z,100151.76
2018-12-11T22:26:52.321Z,100211.62
2018-12-11T22:29:23.582Z,100210.61
2018-12-11T22:31:53.500Z,100207.63
2018-12-11T22:34:23.297Z,100210.69
2018-12-11T22:36:53.497Z,100209.67
2018-12-11T22:39:23.851Z,100221.19
2018-12-11T22:41:54.639Z,100219.77
2018-12-11T22:44:24.397Z,100214.91
2018-12-11T22:46:55.953Z,100225.37
2018-12-11T22:49:25.732Z,100220.83
2018-12-11T22:51:55.582Z,100224.83
2018-12-11T22:54:25.937Z,100228.55
2018-12-11T22:56:55.683Z,100226.31
2018-12-11T22:59:25.575Z,100228.63
2018-12-11T23:01:56.064Z,100231.54
2018-12-11T23:04:26.033Z,100230.14
2018-12-11T23:06:55.817Z,100238.61
2018-12-11T23:09:25.766Z,100234.69
2018-12-11T23:11:55.629Z,100236.94
2018-12-11T23:14:25.743Z,100242.48
2018-12-11T23:16:55.603Z,100247.03
2018-12-11T23:19:25.499Z,100240.70
2018-12-11T23:21:55.291Z,100243.06
2018-12-11T23:24:25.396Z,100237.86
2018-12-11T23:26:55.450Z,100233.91
2018-12-11T23:29:25.297Z,100245.02
2018-12-11T23:31:55.572Z,100241.30
2018-12-11T23:34:25.635Z,100248.78
2018-12-11T23:36:55.463Z,100246.20
2018-12-11T23:39:25.428Z,100246.39
2018-12-11T23:41:55.346Z,100252.36
2018-12-11T23:44:25.147Z,100248.81
2018-12-11T23:46:55.622Z,100261.86
2018-12-11T23:49:25.374Z,100249.52
2018-12-11T23:51:56.560Z,100253.81
2018-12-11T23:54:26.364Z,100247.22
2018-12-11T23:56:56.571Z,100253.10
2018-12-11T23:59:29.226Z,100258.65
